sensor_id;sensor_type;location;lat;lon;timestamp;pressure;altitude;pressure_sealevel;temperature;humidity
50682;BME280;36779;52.168;20.878;2023-04-29T00:01:12;100496.75;;;5.08;50.00
50682;BME280;36779;52.168;20.878;2023-04-29T00:04:02;100493.61;;;5.06;50.04
50682;BME280;36779;52.168;20.878;2023-04-29T00:06:52;100495.86;;;5.04;50.00
50682;BME280;36779;52.168;20.878;2023-04-29T00:09:43;100492.71;;;5.02;50.09
50682;BME280;36779;52.168;20.878;2023-04-29T00:12:35;100494.61;;;5.00;50.13
50682;BME280;36779;52.168;20.878;2023-04-29T00:15:25;100493.83;;;4.99;50.14
50682;BME280;36779;52.168;20.878;2023-04-29T00:18:16;100492.37;;;4.95;50.09
50682;BME280;36779;52.168;20.878;2023-04-29T00:21:05;100489.04;;;4.92;50.25
50682;BME280;36779;52.168;20.878;2023-04-29T00:23:48;100489.04;;;4.90;50.33
50682;BME280;36779;52.168;20.878;2023-04-29T00:26:37;100486.33;;;4.89;50.35
50682;BME280;36779;52.168;20.878;2023-04-29T00:29:27;100484.85;;;4.88;50.35
50682;BME280;36779;52.168;20.878;2023-04-29T00:32:16;100482.26;;;4.87;50.47
50682;BME280;36779;52.168;20.878;2023-04-29T00:35:08;100483.13;;;4.85;50.52
50682;BME280;36779;52.168;20.878;2023-04-29T00:38:02;100478.16;;;4.83;50.53
50682;BME280;36779;52.168;20.878;2023-04-29T00:40:53;100478.54;;;4.83;50.55
50682;BME280;36779;52.168;20.878;2023-04-29T00:43:43;100478.77;;;4.82;50.59
50682;BME280;36779;52.168;20.878;2023-04-29T00:46:33;100473.13;;;4.82;50.74
50682;BME280;36779;52.168;20.878;2023-04-29T00:49:23;100472.87;;;4.83;50.63
50682;BME280;36779;52.168;20.878;2023-04-29T00:52:14;100473.05;;;4.85;50.75
50682;BME280;36779;52.168;20.878;2023-04-29T00:55:08;100469.77;;;4.89;50.80
50682;BME280;36779;52.168;20.878;2023-04-29T00:58:00;100466.05;;;4.91;50.91
50682;BME280;36779;52.168;20.878;2023-04-29T01:00:51;100464.09;;;4.94;50.97
50682;BME280;36779;52.168;20.878;2023-04-29T01:03:43;100462.96;;;4.97;51.03
50682;BME280;36779;52.168;20.878;2023-04-29T01:06:40;100463.63;;;5.02;51.20
50682;BME280;36779;52.168;20.878;2023-04-29T01:09:44;100465.54;;;5.07;51.27
50682;BME280;36779;52.168;20.878;2023-04-29T01:12:45;100465.40;;;5.10;51.26
50682;BME280;36779;52.168;20.878;2023-04-29T01:15:41;100465.08;;;5.12;51.28
50682;BME280;36779;52.168;20.878;2023-04-29T01:18:51;100471.54;;;5.13;51.31
50682;BME280;36779;52.168;20.878;2023-04-29T01:21:46;100465.99;;;5.12;51.38
50682;BME280;36779;52.168;20.878;2023-04-29T01:24:38;100466.71;;;5.11;51.40
50682;BME280;36779;52.168;20.878;2023-04-29T01:27:32;100464.38;;;5.12;51.43
50682;BME280;36779;52.168;20.878;2023-04-29T01:30:30;100462.77;;;5.12;51.55
50682;BME280;36779;52.168;20.878;2023-04-29T01:33:39;100469.11;;;5.12;51.49
50682;BME280;36779;52.168;20.878;2023-04-29T01:36:36;100466.46;;;5.11;51.54
50682;BME280;36779;52.168;20.878;2023-04-29T01:39:34;100468.10;;;5.10;51.60
50682;BME280;36779;52.168;20.878;2023-04-29T01:42:33;100467.11;;;5.09;51.59
50682;BME280;36779;52.168;20.878;2023-04-29T01:45:25;100467.96;;;5.07;51.66
50682;BME280;36779;52.168;20.878;2023-04-29T01:48:16;100465.04;;;5.06;51.65
50682;BME280;36779;52.168;20.878;2023-04-29T01:51:07;100464.72;;;5.06;51.72
50682;BME280;36779;52.168;20.878;2023-04-29T01:53:56;100463.30;;;5.04;51.74
50682;BME280;36779;52.168;20.878;2023-04-29T01:56:47;100466.72;;;5.03;51.88
50682;BME280;36779;52.168;20.878;2023-04-29T01:59:49;100463.31;;;5.02;51.81
50682;BME280;36779;52.168;20.878;2023-04-29T02:02:37;100461.48;;;5.00;51.88
50682;BME280;36779;52.168;20.878;2023-04-29T02:05:27;100458.16;;;5.00;51.83
50682;BME280;36779;52.168;20.878;2023-04-29T02:08:20;100453.90;;;5.00;51.87
50682;BME280;36779;52.168;20.878;2023-04-29T02:11:14;100456.36;;;5.02;51.99
50682;BME280;36779;52.168;20.878;2023-04-29T02:14:03;100453.61;;;5.04;52.00
50682;BME280;36779;52.168;20.878;2023-04-29T02:16:55;100454.14;;;5.06;52.05
50682;BME280;36779;52.168;20.878;2023-04-29T02:19:45;100453.02;;;5.09;52.11
50682;BME280;36779;52.168;20.878;2023-04-29T02:22:34;100452.23;;;5.14;52.17
50682;BME280;36779;52.168;20.878;2023-04-29T02:25:24;100452.35;;;5.19;52.26
50682;BME280;36779;52.168;20.878;2023-04-29T02:28:14;100451.34;;;5.23;52.28
50682;BME280;36779;52.168;20.878;2023-04-29T02:31:03;100448.98;;;5.26;52.34
50682;BME280;36779;52.168;20.878;2023-04-29T02:33:53;100448.58;;;5.27;52.35
50682;BME280;36779;52.168;20.878;2023-04-29T02:36:43;100445.08;;;5.27;52.39
50682;BME280;36779;52.168;20.878;2023-04-29T02:39:35;100447.09;;;5.25;52.47
50682;BME280;36779;52.168;20.878;2023-04-29T02:42:26;100442.98;;;5.24;52.43
50682;BME280;36779;52.168;20.878;2023-04-29T02:45:16;100441.56;;;5.22;52.44
50682;BME280;36779;52.168;20.878;2023-04-29T02:48:06;100442.86;;;5.19;52.46
50682;BME280;36779;52.168;20.878;2023-04-29T02:50:56;100438.97;;;5.17;52.42
50682;BME280;36779;52.168;20.878;2023-04-29T02:53:45;100437.95;;;5.16;52.56
50682;BME280;36779;52.168;20.878;2023-04-29T02:56:36;100440.20;;;5.15;52.60
50682;BME280;36779;52.168;20.878;2023-04-29T02:59:25;100434.67;;;5.13;52.55
50682;BME280;36779;52.168;20.878;2023-04-29T03:02:15;100433.62;;;5.11;52.51
50682;BME280;36779;52.168;20.878;2023-04-29T03:05:06;100435.86;;;5.10;52.55
50682;BME280;36779;52.168;20.878;2023-04-29T03:07:56;100430.17;;;5.08;52.65
50682;BME280;36779;52.168;20.878;2023-04-29T03:10:47;100429.39;;;5.07;52.59
50682;BME280;36779;52.168;20.878;2023-04-29T03:13:39;100430.73;;;5.04;52.66
50682;BME280;36779;52.168;20.878;2023-04-29T03:16:29;100434.83;;;5.03;52.75
50682;BME280;36779;52.168;20.878;2023-04-29T03:19:20;100432.14;;;5.02;52.72
50682;BME280;36779;52.168;20.878;2023-04-29T03:22:09;100428.58;;;5.00;52.79
50682;BME280;36779;52.168;20.878;2023-04-29T03:24:59;100426.01;;;4.99;52.77
50682;BME280;36779;52.168;20.878;2023-04-29T03:27:49;100426.74;;;4.99;52.74
50682;BME280;36779;52.168;20.878;2023-04-29T03:30:39;100429.96;;;4.98;52.76
50682;BME280;36779;52.168;20.878;2023-04-29T03:33:28;100428.94;;;4.98;52.84
50682;BME280;36779;52.168;20.878;2023-04-29T03:36:18;100431.72;;;4.98;52.91
50682;BME280;36779;52.168;20.878;2023-04-29T03:39:11;100429.64;;;5.00;52.88
50682;BME280;36779;52.168;20.878;2023-04-29T03:42:03;100425.24;;;5.02;53.00
50682;BME280;36779;52.168;20.878;2023-04-29T03:44:52;100427.92;;;5.06;52.99
50682;BME280;36779;52.168;20.878;2023-04-29T03:47:42;100428.48;;;5.09;53.04
50682;BME280;36779;52.168;20.878;2023-04-29T03:50:31;100432.68;;;5.14;53.09
50682;BME280;36779;52.168;20.878;2023-04-29T03:53:21;100433.27;;;5.20;53.26
50682;BME280;36779;52.168;20.878;2023-04-29T03:56:10;100435.82;;;5.25;53.21
50682;BME280;36779;52.168;20.878;2023-04-29T03:58:59;100434.21;;;5.28;53.27
50682;BME280;36779;52.168;20.878;2023-04-29T04:01:49;100433.70;;;5.29;53.20
50682;BME280;36779;52.168;20.878;2023-04-29T04:04:41;100436.15;;;5.32;53.30
50682;BME280;36779;52.168;20.878;2023-04-29T04:07:31;100438.46;;;5.36;53.37
50682;BME280;36779;52.168;20.878;2023-04-29T04:10:19;100436.29;;;5.38;53.30
50682;BME280;36779;52.168;20.878;2023-04-29T04:13:09;100433.11;;;5.41;53.44
50682;BME280;36779;52.168;20.878;2023-04-29T04:15:58;100431.60;;;5.47;53.44
50682;BME280;36779;52.168;20.878;2023-04-29T04:18:50;100428.83;;;5.54;53.48
50682;BME280;36779;52.168;20.878;2023-04-29T04:21:39;100422.85;;;5.68;53.60
50682;BME280;36779;52.168;20.878;2023-04-29T04:24:28;100420.68;;;5.97;53.91
50682;BME280;36779;52.168;20.878;2023-04-29T04:27:21;100412.74;;;6.29;54.19
50682;BME280;36779;52.168;20.878;2023-04-29T04:30:12;100411.09;;;6.66;54.14
50682;BME280;36779;52.168;20.878;2023-04-29T04:33:06;100410.05;;;7.01;54.27
50682;BME280;36779;52.168;20.878;2023-04-29T04:35:56;100413.13;;;7.41;54.35
50682;BME280;36779;52.168;20.878;2023-04-29T04:38:45;100411.56;;;7.85;54.41
50682;BME280;36779;52.168;20.878;2023-04-29T04:41:36;100407.17;;;8.29;54.47
50682;BME280;36779;52.168;20.878;2023-04-29T04:44:26;100409.88;;;8.66;54.32
50682;BME280;36779;52.168;20.878;2023-04-29T04:47:24;100405.68;;;8.93;54.03
50682;BME280;36779;52.168;20.878;2023-04-29T04:50:17;100408.07;;;9.36;54.37
50682;BME280;36779;52.168;20.878;2023-04-29T04:53:07;100406.10;;;10.04;54.66
50682;BME280;36779;52.168;20.878;2023-04-29T04:56:02;100397.75;;;10.49;54.13
50682;BME280;36779;52.168;20.878;2023-04-29T04:58:53;100398.14;;;10.67;53.85
50682;BME280;36779;52.168;20.878;2023-04-29T05:01:43;100399.72;;;11.04;53.86
50682;BME280;36779;52.168;20.878;2023-04-29T05:04:33;100401.30;;;11.27;53.48
50682;BME280;36779;52.168;20.878;2023-04-29T05:07:24;100400.12;;;11.43;53.11
50682;BME280;36779;52.168;20.878;2023-04-29T05:10:23;100404.51;;;11.32;52.67
50682;BME280;36779;52.168;20.878;2023-04-29T05:13:15;100404.27;;;11.41;52.60
50682;BME280;36779;52.168;20.878;2023-04-29T05:16:06;100405.15;;;11.33;52.27
50682;BME280;36779;52.168;20.878;2023-04-29T05:18:59;100406.30;;;11.21;52.16
50682;BME280;36779;52.168;20.878;2023-04-29T05:21:48;100402.96;;;11.18;51.97
50682;BME280;36779;52.168;20.878;2023-04-29T05:24:39;100399.97;;;11.13;51.78
50682;BME280;36779;52.168;20.878;2023-04-29T05:27:30;100400.07;;;11.07;51.81
50682;BME280;36779;52.168;20.878;2023-04-29T05:30:19;100396.73;;;11.09;52.01
50682;BME280;36779;52.168;20.878;2023-04-29T05:33:10;100396.40;;;11.17;51.94
50682;BME280;36779;52.168;20.878;2023-04-29T05:36:03;100396.66;;;11.22;51.81
50682;BME280;36779;52.168;20.878;2023-04-29T05:38:54;100395.23;;;11.29;51.87
50682;BME280;36779;52.168;20.878;2023-04-29T05:41:44;100392.57;;;11.36;51.78
50682;BME280;36779;52.168;20.878;2023-04-29T05:44:39;100391.17;;;11.34;51.60
50682;BME280;36779;52.168;20.878;2023-04-29T05:47:29;100390.30;;;11.30;51.52
50682;BME280;36779;52.168;20.878;2023-04-29T05:50:19;100388.96;;;11.28;51.42
50682;BME280;36779;52.168;20.878;2023-04-29T05:53:10;100388.42;;;11.29;51.35
50682;BME280;36779;52.168;20.878;2023-04-29T05:56:01;100391.36;;;11.32;51.52
50682;BME280;36779;52.168;20.878;2023-04-29T05:58:54;100390.63;;;11.36;51.46
50682;BME280;36779;52.168;20.878;2023-04-29T06:01:46;100391.36;;;11.45;51.40
50682;BME280;36779;52.168;20.878;2023-04-29T06:04:38;100390.90;;;11.44;51.25
50682;BME280;36779;52.168;20.878;2023-04-29T06:07:33;100388.66;;;11.42;51.21
50682;BME280;36779;52.168;20.878;2023-04-29T06:10:22;100389.13;;;11.46;51.11
50682;BME280;36779;52.168;20.878;2023-04-29T06:13:13;100386.48;;;11.50;51.10
50682;BME280;36779;52.168;20.878;2023-04-29T06:16:04;100388.66;;;11.53;51.10
50682;BME280;36779;52.168;20.878;2023-04-29T06:18:54;100390.23;;;11.54;51.19
50682;BME280;36779;52.168;20.878;2023-04-29T06:21:43;100388.09;;;11.52;51.05
50682;BME280;36779;52.168;20.878;2023-04-29T06:24:32;100384.86;;;11.54;51.10
50682;BME280;36779;52.168;20.878;2023-04-29T06:27:22;100386.69;;;11.59;51.04
50682;BME280;36779;52.168;20.878;2023-04-29T06:30:13;100381.11;;;11.59;50.97
50682;BME280;36779;52.168;20.878;2023-04-29T06:33:05;100381.70;;;11.70;51.11
50682;BME280;36779;52.168;20.878;2023-04-29T06:35:55;100379.03;;;11.86;51.13
50682;BME280;36779;52.168;20.878;2023-04-29T06:38:46;100377.46;;;12.07;51.37
50682;BME280;36779;52.168;20.878;2023-04-29T06:41:35;100375.27;;;12.42;51.51
50682;BME280;36779;52.168;20.878;2023-04-29T06:44:26;100377.73;;;12.80;51.70
50682;BME280;36779;52.168;20.878;2023-04-29T06:47:23;100373.94;;;13.31;51.74
50682;BME280;36779;52.168;20.878;2023-04-29T06:50:18;100380.08;;;13.66;51.28
50682;BME280;36779;52.168;20.878;2023-04-29T06:53:07;100381.59;;;13.79;50.92
50682;BME280;36779;52.168;20.878;2023-04-29T06:55:57;100383.25;;;13.65;50.10
50682;BME280;36779;52.168;20.878;2023-04-29T06:58:46;100381.85;;;13.60;50.44
50682;BME280;36779;52.168;20.878;2023-04-29T07:01:35;100380.43;;;13.65;50.28
50682;BME280;36779;52.168;20.878;2023-04-29T07:04:26;100377.67;;;13.78;50.27
50682;BME280;36779;52.168;20.878;2023-04-29T07:07:15;100373.04;;;13.88;50.38
50682;BME280;36779;52.168;20.878;2023-04-29T07:10:06;100375.15;;;14.00;50.28
50682;BME280;36779;52.168;20.878;2023-04-29T07:12:56;100368.46;;;14.08;49.91
50682;BME280;36779;52.168;20.878;2023-04-29T07:15:45;100368.20;;;14.18;49.84
50682;BME280;36779;52.168;20.878;2023-04-29T07:18:35;100364.39;;;14.24;49.79
50682;BME280;36779;52.168;20.878;2023-04-29T07:21:24;100362.90;;;14.35;49.78
50682;BME280;36779;52.168;20.878;2023-04-29T07:24:14;100358.83;;;14.45;49.79
50682;BME280;36779;52.168;20.878;2023-04-29T07:27:05;100362.55;;;14.51;49.58
50682;BME280;36779;52.168;20.878;2023-04-29T07:29:56;100358.61;;;14.49;49.47
50682;BME280;36779;52.168;20.878;2023-04-29T07:32:47;100358.70;;;14.56;49.43
50682;BME280;36779;52.168;20.878;2023-04-29T07:35:37;100362.17;;;14.66;49.43
50682;BME280;36779;52.168;20.878;2023-04-29T07:38:29;100360.58;;;14.61;49.03
50682;BME280;36779;52.168;20.878;2023-04-29T07:41:20;100356.79;;;14.66;49.27
50682;BME280;36779;52.168;20.878;2023-04-29T07:44:10;100358.52;;;14.73;49.16
50682;BME280;36779;52.168;20.878;2023-04-29T07:46:59;100356.79;;;14.82;49.19
50682;BME280;36779;52.168;20.878;2023-04-29T07:49:50;100354.59;;;14.92;49.29
50682;BME280;36779;52.168;20.878;2023-04-29T07:52:40;100357.36;;;15.00;49.29
50682;BME280;36779;52.168;20.878;2023-04-29T07:55:30;100357.09;;;15.22;49.18
50682;BME280;36779;52.168;20.878;2023-04-29T07:58:19;100358.02;;;15.45;49.10
50682;BME280;36779;52.168;20.878;2023-04-29T08:01:09;100356.90;;;15.62;48.97
50682;BME280;36779;52.168;20.878;2023-04-29T08:03:59;100357.24;;;15.67;48.60
50682;BME280;36779;52.168;20.878;2023-04-29T08:06:49;100365.96;;;15.65;48.78
50682;BME280;36779;52.168;20.878;2023-04-29T08:09:38;100357.77;;;15.54;48.45
50682;BME280;36779;52.168;20.878;2023-04-29T08:12:28;100361.20;;;15.48;48.59
50682;BME280;36779;52.168;20.878;2023-04-29T08:15:18;100362.30;;;15.57;48.58
50682;BME280;36779;52.168;20.878;2023-04-29T08:18:07;100362.38;;;15.70;48.71
50682;BME280;36779;52.168;20.878;2023-04-29T08:20:57;100361.89;;;15.81;48.69
50682;BME280;36779;52.168;20.878;2023-04-29T08:23:46;100357.20;;;15.84;48.18
50682;BME280;36779;52.168;20.878;2023-04-29T08:26:35;100360.58;;;15.91;48.29
50682;BME280;36779;52.168;20.878;2023-04-29T08:29:25;100355.58;;;15.99;48.29
50682;BME280;36779;52.168;20.878;2023-04-29T08:32:14;100352.33;;;16.10;48.32
50682;BME280;36779;52.168;20.878;2023-04-29T08:35:06;100354.76;;;16.22;48.39
50682;BME280;36779;52.168;20.878;2023-04-29T08:37:56;100352.83;;;16.37;48.13
50682;BME280;36779;52.168;20.878;2023-04-29T08:40:46;100345.23;;;16.52;48.17
50682;BME280;36779;52.168;20.878;2023-04-29T08:43:35;100343.69;;;16.73;48.22
50682;BME280;36779;52.168;20.878;2023-04-29T08:46:25;100342.58;;;16.94;48.26
50682;BME280;36779;52.168;20.878;2023-04-29T08:49:15;100342.95;;;17.25;48.37
50682;BME280;36779;52.168;20.878;2023-04-29T08:52:06;100340.86;;;17.55;48.28
50682;BME280;36779;52.168;20.878;2023-04-29T08:54:55;100340.48;;;17.80;47.97
50682;BME280;36779;52.168;20.878;2023-04-29T08:57:47;100338.54;;;17.95;47.72
50682;BME280;36779;52.168;20.878;2023-04-29T09:00:39;100339.27;;;17.99;47.34
50682;BME280;36779;52.168;20.878;2023-04-29T09:03:36;100341.46;;;17.91;46.81
50682;BME280;36779;52.168;20.878;2023-04-29T09:06:29;100340.31;;;17.84;46.84
50682;BME280;36779;52.168;20.878;2023-04-29T09:09:20;100339.54;;;17.79;46.70
50682;BME280;36779;52.168;20.878;2023-04-29T09:12:09;100337.38;;;17.95;46.82
50682;BME280;36779;52.168;20.878;2023-04-29T09:14:59;100331.10;;;18.01;46.55
50682;BME280;36779;52.168;20.878;2023-04-29T09:17:49;100333.41;;;18.04;46.51
50682;BME280;36779;52.168;20.878;2023-04-29T09:20:38;100329.59;;;18.05;46.45
50682;BME280;36779;52.168;20.878;2023-04-29T09:23:37;100329.66;;;18.08;46.31
50682;BME280;36779;52.168;20.878;2023-04-29T09:26:27;100329.10;;;18.04;46.07
50682;BME280;36779;52.168;20.878;2023-04-29T09:29:23;100332.41;;;17.89;45.77
50682;BME280;36779;52.168;20.878;2023-04-29T09:32:21;100333.30;;;17.73;45.58
50682;BME280;36779;52.168;20.878;2023-04-29T09:35:24;100333.80;;;17.63;45.69
50682;BME280;36779;52.168;20.878;2023-04-29T09:38:14;100329.96;;;17.53;45.58
50682;BME280;36779;52.168;20.878;2023-04-29T09:41:09;100328.65;;;17.44;45.61
50682;BME280;36779;52.168;20.878;2023-04-29T09:44:04;100326.99;;;17.39;45.60
50682;BME280;36779;52.168;20.878;2023-04-29T09:46:58;100324.27;;;17.37;45.52
50682;BME280;36779;52.168;20.878;2023-04-29T09:49:50;100322.84;;;17.39;45.54
50682;BME280;36779;52.168;20.878;2023-04-29T09:52:40;100317.78;;;17.49;45.76
50682;BME280;36779;52.168;20.878;2023-04-29T09:55:30;100317.93;;;17.61;45.55
50682;BME280;36779;52.168;20.878;2023-04-29T09:58:27;100312.52;;;17.78;45.75
50682;BME280;36779;52.168;20.878;2023-04-29T10:01:19;100310.49;;;18.09;45.98
50682;BME280;36779;52.168;20.878;2023-04-29T10:04:11;100303.51;;;18.49;45.88
50682;BME280;36779;52.168;20.878;2023-04-29T10:07:02;100300.70;;;18.73;45.73
50682;BME280;36779;52.168;20.878;2023-04-29T10:09:52;100296.63;;;19.05;45.80
50682;BME280;36779;52.168;20.878;2023-04-29T10:12:43;100294.52;;;19.23;45.21
50682;BME280;36779;52.168;20.878;2023-04-29T10:15:37;100292.72;;;19.23;45.29
50682;BME280;36779;52.168;20.878;2023-04-29T10:18:35;100287.52;;;19.45;45.35
50682;BME280;36779;52.168;20.878;2023-04-29T10:21:28;100282.85;;;19.60;45.19
50682;BME280;36779;52.168;20.878;2023-04-29T10:24:21;100282.17;;;19.83;45.25
50682;BME280;36779;52.168;20.878;2023-04-29T10:27:12;100286.98;;;20.15;45.31
50682;BME280;36779;52.168;20.878;2023-04-29T10:30:07;100285.34;;;20.18;44.80
50682;BME280;36779;52.168;20.878;2023-04-29T10:32:58;100277.43;;;20.01;44.25
50682;BME280;36779;52.168;20.878;2023-04-29T10:35:51;100275.17;;;19.79;44.24
50682;BME280;36779;52.168;20.878;2023-04-29T10:38:44;100272.34;;;19.80;44.36
50682;BME280;36779;52.168;20.878;2023-04-29T10:41:42;100269.65;;;19.93;44.58
50682;BME280;36779;52.168;20.878;2023-04-29T10:45:20;100268.64;;;20.08;44.42
50682;BME280;36779;52.168;20.878;2023-04-29T10:48:14;100262.27;;;20.12;44.22
50682;BME280;36779;52.168;20.878;2023-04-29T10:51:04;100261.02;;;20.14;44.04
50682;BME280;36779;52.168;20.878;2023-04-29T10:54:01;100259.29;;;20.14;43.91
50682;BME280;36779;52.168;20.878;2023-04-29T10:56:58;100259.13;;;20.10;43.64
50682;BME280;36779;52.168;20.878;2023-04-29T10:59:47;100258.14;;;19.99;43.62
50682;BME280;36779;52.168;20.878;2023-04-29T11:02:36;100259.16;;;20.07;43.72
50682;BME280;36779;52.168;20.878;2023-04-29T11:05:29;100260.27;;;19.97;43.38
50682;BME280;36779;52.168;20.878;2023-04-29T11:08:23;100256.40;;;19.92;43.71
50682;BME280;36779;52.168;20.878;2023-04-29T11:11:03;100252.73;;;20.14;43.85
50682;BME280;36779;52.168;20.878;2023-04-29T11:13:52;100250.84;;;20.41;43.91
50682;BME280;36779;52.168;20.878;2023-04-29T11:16:51;100248.80;;;20.65;43.75
50682;BME280;36779;52.168;20.878;2023-04-29T11:19:43;100246.04;;;20.72;43.47
50682;BME280;36779;52.168;20.878;2023-04-29T11:22:32;100243.91;;;20.65;43.28
50682;BME280;36779;52.168;20.878;2023-04-29T11:25:25;100238.64;;;20.64;43.28
50682;BME280;36779;52.168;20.878;2023-04-29T11:28:16;100240.98;;;20.57;43.04
50682;BME280;36779;52.168;20.878;2023-04-29T11:31:07;100237.98;;;20.33;42.68
50682;BME280;36779;52.168;20.878;2023-04-29T11:33:57;100241.40;;;20.09;42.62
50682;BME280;36779;52.168;20.878;2023-04-29T11:36:47;100238.54;;;19.88;42.70
50682;BME280;36779;52.168;20.878;2023-04-29T11:39:37;100232.42;;;19.71;42.67
50682;BME280;36779;52.168;20.878;2023-04-29T11:42:27;100237.46;;;19.52;42.76
50682;BME280;36779;52.168;20.878;2023-04-29T11:45:18;100232.91;;;19.38;42.85
50682;BME280;36779;52.168;20.878;2023-04-29T11:48:07;100223.52;;;19.29;43.00
50682;BME280;36779;52.168;20.878;2023-04-29T11:51:00;100224.78;;;19.28;42.94
50682;BME280;36779;52.168;20.878;2023-04-29T11:53:51;100219.65;;;19.25;42.69
50682;BME280;36779;52.168;20.878;2023-04-29T11:56:41;100216.38;;;19.10;42.80
50682;BME280;36779;52.168;20.878;2023-04-29T11:59:21;100213.80;;;18.98;42.78
50682;BME280;36779;52.168;20.878;2023-04-29T12:02:12;100217.27;;;18.91;42.74
50682;BME280;36779;52.168;20.878;2023-04-29T12:05:06;100211.38;;;18.89;42.92
50682;BME280;36779;52.168;20.878;2023-04-29T12:07:55;100215.39;;;18.92;43.09
50682;BME280;36779;52.168;20.878;2023-04-29T12:10:46;100214.48;;;18.91;42.82
50682;BME280;36779;52.168;20.878;2023-04-29T12:13:36;100210.04;;;18.82;42.82
50682;BME280;36779;52.168;20.878;2023-04-29T12:16:25;100207.55;;;18.75;42.79
50682;BME280;36779;52.168;20.878;2023-04-29T12:19:16;100207.22;;;18.65;42.70
50682;BME280;36779;52.168;20.878;2023-04-29T12:22:16;100204.56;;;18.72;43.12
50682;BME280;36779;52.168;20.878;2023-04-29T12:25:10;100202.17;;;19.05;43.35
50682;BME280;36779;52.168;20.878;2023-04-29T12:28:00;100201.02;;;19.26;43.25
50682;BME280;36779;52.168;20.878;2023-04-29T12:30:51;100196.20;;;19.37;43.07
50682;BME280;36779;52.168;20.878;2023-04-29T12:33:43;100190.20;;;19.50;43.03
50682;BME280;36779;52.168;20.878;2023-04-29T12:36:34;100194.71;;;19.64;42.93
50682;BME280;36779;52.168;20.878;2023-04-29T12:39:26;100195.46;;;19.68;42.80
50682;BME280;36779;52.168;20.878;2023-04-29T12:42:15;100193.70;;;19.61;42.68
50682;BME280;36779;52.168;20.878;2023-04-29T12:45:06;100187.73;;;19.56;42.80
50682;BME280;36779;52.168;20.878;2023-04-29T12:47:57;100182.47;;;19.61;42.69
50682;BME280;36779;52.168;20.878;2023-04-29T12:50:49;100183.42;;;19.66;42.75
50682;BME280;36779;52.168;20.878;2023-04-29T12:53:39;100181.45;;;19.68;42.69
50682;BME280;36779;52.168;20.878;2023-04-29T12:56:29;100183.63;;;19.75;42.72
50682;BME280;36779;52.168;20.878;2023-04-29T12:59:19;100184.27;;;19.74;42.36
50682;BME280;36779;52.168;20.878;2023-04-29T13:02:10;100186.48;;;19.56;42.23
50682;BME280;36779;52.168;20.878;2023-04-29T13:05:00;100183.66;;;19.37;42.16
50682;BME280;36779;52.168;20.878;2023-04-29T13:07:52;100180.69;;;19.24;42.27
50682;BME280;36779;52.168;20.878;2023-04-29T13:10:41;100176.65;;;19.18;42.33
50682;BME280;36779;52.168;20.878;2023-04-29T13:13:30;100178.80;;;19.18;42.30
50682;BME280;36779;52.168;20.878;2023-04-29T13:16:21;100176.93;;;19.15;42.25
50682;BME280;36779;52.168;20.878;2023-04-29T13:19:12;100172.61;;;19.06;42.09
50682;BME280;36779;52.168;20.878;2023-04-29T13:22:22;100173.66;;;18.97;42.13
50682;BME280;36779;52.168;20.878;2023-04-29T13:25:11;100179.65;;;18.76;42.04
50682;BME280;36779;52.168;20.878;2023-04-29T13:28:00;100178.55;;;18.61;42.21
50682;BME280;36779;52.168;20.878;2023-04-29T13:30:50;100172.97;;;18.70;42.50
50682;BME280;36779;52.168;20.878;2023-04-29T13:33:39;100169.54;;;18.75;42.45
50682;BME280;36779;52.168;20.878;2023-04-29T13:36:28;100164.06;;;18.72;42.20
50682;BME280;36779;52.168;20.878;2023-04-29T13:39:18;100166.95;;;18.63;42.14
50682;BME280;36779;52.168;20.878;2023-04-29T13:42:11;100165.85;;;18.51;42.19
50682;BME280;36779;52.168;20.878;2023-04-29T13:44:57;100162.89;;;18.50;42.34
50682;BME280;36779;52.168;20.878;2023-04-29T13:47:46;100164.77;;;18.48;42.26
50682;BME280;36779;52.168;20.878;2023-04-29T13:50:55;100165.45;;;18.41;42.42
50682;BME280;36779;52.168;20.878;2023-04-29T13:54:04;100163.02;;;18.42;42.42
50682;BME280;36779;52.168;20.878;2023-04-29T13:56:56;100166.88;;;18.46;42.29
50682;BME280;36779;52.168;20.878;2023-04-29T13:59:48;100165.98;;;18.46;42.42
50682;BME280;36779;52.168;20.878;2023-04-29T14:02:38;100160.05;;;18.43;42.34
50682;BME280;36779;52.168;20.878;2023-04-29T14:05:26;100157.30;;;18.50;42.45
50682;BME280;36779;52.168;20.878;2023-04-29T14:08:09;100154.27;;;18.61;42.61
50682;BME280;36779;52.168;20.878;2023-04-29T14:10:59;100154.77;;;18.69;42.51
50682;BME280;36779;52.168;20.878;2023-04-29T14:13:48;100148.91;;;18.70;42.39
50682;BME280;36779;52.168;20.878;2023-04-29T14:16:38;100148.84;;;18.64;42.28
50682;BME280;36779;52.168;20.878;2023-04-29T14:19:28;100150.98;;;18.57;42.40
50682;BME280;36779;52.168;20.878;2023-04-29T14:22:17;100148.21;;;18.53;42.36
50682;BME280;36779;52.168;20.878;2023-04-29T14:25:09;100146.64;;;18.53;42.36
50682;BME280;36779;52.168;20.878;2023-04-29T14:27:59;100154.59;;;18.61;42.50
50682;BME280;36779;52.168;20.878;2023-04-29T14:30:49;100148.08;;;18.64;42.46
50682;BME280;36779;52.168;20.878;2023-04-29T14:33:39;100148.91;;;18.71;42.47
50682;BME280;36779;52.168;20.878;2023-04-29T14:36:28;100142.52;;;18.78;42.65
50682;BME280;36779;52.168;20.878;2023-04-29T14:39:20;100142.63;;;18.79;42.37
50682;BME280;36779;52.168;20.878;2023-04-29T14:42:10;100142.91;;;18.80;42.44
50682;BME280;36779;52.168;20.878;2023-04-29T14:45:00;100140.68;;;18.83;42.36
50682;BME280;36779;52.168;20.878;2023-04-29T14:47:49;100139.56;;;18.82;42.33